sensor_id;sensor_type;location;lat;lon;timestamp;temperature;humidity
1049;DHT22;513;51.444;7.196;2023-03-23T00:01:29;10.40;99.90
1049;DHT22;513;51.444;7.196;2023-03-23T00:03:58;10.50;99.90
1049;DHT22;513;51.444;7.196;2023-03-23T00:06:26;10.50;99.90
1049;DHT22;513;51.444;7.196;2023-03-23T00:08:55;10.50;99.90
1049;DHT22;513;51.444;7.196;2023-03-23T00:11:25;10.50;99.90
1049;DHT22;513;51.444;7.196;2023-03-23T00:13:55;10.60;99.90
1049;DHT22;513;51.444;7.196;2023-03-23T00:16:27;10.60;99.90
1049;DHT22;513;51.444;7.196;2023-03-23T00:18:57;10.60;99.90
1049;DHT22;513;51.444;7.196;2023-03-23T00:21:25;10.70;99.90
1049;DHT22;513;51.444;7.196;2023-03-23T00:24:02;10.70;99.90
1049;DHT22;513;51.444;7.196;2023-03-23T00:26:29;10.80;99.90
1049;DHT22;513;51.444;7.196;2023-03-23T00:28:59;10.70;99.90
1049;DHT22;513;51.444;7.196;2023-03-23T00:31:27;10.70;99.90
1049;DHT22;513;51.444;7.196;2023-03-23T00:33:57;10.80;99.90
1049;DHT22;513;51.444;7.196;2023-03-23T00:36:27;10.80;99.90
1049;DHT22;513;51.444;7.196;2023-03-23T00:38:54;10.90;99.90
1049;DHT22;513;51.444;7.196;2023-03-23T00:41:26;11.00;99.90
1049;DHT22;513;51.444;7.196;2023-03-23T00:43:53;11.00;99.90
1049;DHT22;513;51.444;7.196;2023-03-23T00:46:20;11.00;99.90
1049;DHT22;513;51.444;7.196;2023-03-23T00:48:48;11.00;99.90
1049;DHT22;513;51.444;7.196;2023-03-23T00:51:16;11.00;99.90
1049;DHT22;513;51.444;7.196;2023-03-23T00:53:43;11.00;99.90
1049;DHT22;513;51.444;7.196;2023-03-23T00:56:10;11.10;99.90
1049;DHT22;513;51.444;7.196;2023-03-23T00:58:39;11.10;99.90
1049;DHT22;513;51.444;7.196;2023-03-23T01:01:05;11.00;99.90
1049;DHT22;513;51.444;7.196;2023-03-23T01:03:32;11.10;99.90
1049;DHT22;513;51.444;7.196;2023-03-23T01:06:05;11.10;99.90
1049;DHT22;513;51.444;7.196;2023-03-23T01:08:33;11.20;99.90
1049;DHT22;513;51.444;7.196;2023-03-23T01:11:03;11.20;99.90
1049;DHT22;513;51.444;7.196;2023-03-23T01:13:32;11.10;99.90
1049;DHT22;513;51.444;7.196;2023-03-23T01:16:00;11.10;99.90
1049;DHT22;513;51.444;7.196;2023-03-23T01:18:28;11.00;99.90
1049;DHT22;513;51.444;7.196;2023-03-23T01:20:54;11.10;99.90
1049;DHT22;513;51.444;7.196;2023-03-23T01:23:21;11.10;99.90
1049;DHT22;513;51.444;7.196;2023-03-23T01:25:48;11.10;99.90
1049;DHT22;513;51.444;7.196;2023-03-23T01:28:14;11.20;99.90
1049;DHT22;513;51.444;7.196;2023-03-23T01:30:41;11.10;99.90
1049;DHT22;513;51.444;7.196;2023-03-23T01:33:09;11.10;99.90
1049;DHT22;513;51.444;7.196;2023-03-23T01:35:37;11.10;99.90
1049;DHT22;513;51.444;7.196;2023-03-23T01:38:04;11.20;99.90
1049;DHT22;513;51.444;7.196;2023-03-23T01:40:31;11.10;99.90
1049;DHT22;513;51.444;7.196;2023-03-23T01:42:58;11.10;99.90
1049;DHT22;513;51.444;7.196;2023-03-23T01:45:29;11.10;99.90
1049;DHT22;513;51.444;7.196;2023-03-23T01:48:03;11.10;99.90
1049;DHT22;513;51.444;7.196;2023-03-23T01:50:36;11.10;99.90
1049;DHT22;513;51.444;7.196;2023-03-23T01:53:05;11.10;99.90
1049;DHT22;513;51.444;7.196;2023-03-23T01:55:34;11.00;99.90
1049;DHT22;513;51.444;7.196;2023-03-23T01:58:03;11.00;99.90
1049;DHT22;513;51.444;7.196;2023-03-23T02:00:31;11.00;99.90
1049;DHT22;513;51.444;7.196;2023-03-23T02:03:00;11.00;99.90
1049;DHT22;513;51.444;7.196;2023-03-23T02:05:32;11.00;99.90
1049;DHT22;513;51.444;7.196;2023-03-23T02:08:01;11.00;99.90
1049;DHT22;513;51.444;7.196;2023-03-23T02:10:29;11.00;99.90
1049;DHT22;513;51.444;7.196;2023-03-23T02:12:57;11.00;99.90
1049;DHT22;513;51.444;7.196;2023-03-23T02:15:25;11.10;99.90
1049;DHT22;513;51.444;7.196;2023-03-23T02:18:00;11.10;99.90
1049;DHT22;513;51.444;7.196;2023-03-23T02:20:41;11.10;99.90
1049;DHT22;513;51.444;7.196;2023-03-23T02:23:42;11.10;99.90
1049;DHT22;513;51.444;7.196;2023-03-23T02:26:23;11.10;99.90
1049;DHT22;513;51.444;7.196;2023-03-23T02:29:15;11.10;99.90
1049;DHT22;513;51.444;7.196;2023-03-23T02:31:58;11.10;99.90
1049;DHT22;513;51.444;7.196;2023-03-23T02:34:35;11.00;99.90
1049;DHT22;513;51.444;7.196;2023-03-23T02:37:08;11.00;99.90
1049;DHT22;513;51.444;7.196;2023-03-23T02:39:40;11.00;99.90
1049;DHT22;513;51.444;7.196;2023-03-23T02:42:12;11.00;99.90
1049;DHT22;513;51.444;7.196;2023-03-23T02:44:42;11.00;99.90
1049;DHT22;513;51.444;7.196;2023-03-23T02:47:15;11.00;99.90
1049;DHT22;513;51.444;7.196;2023-03-23T02:49:46;11.00;99.90
1049;DHT22;513;51.444;7.196;2023-03-23T02:52:17;10.90;99.90
1049;DHT22;513;51.444;7.196;2023-03-23T02:54:48;10.90;99.90
1049;DHT22;513;51.444;7.196;2023-03-23T02:57:15;10.90;99.90
1049;DHT22;513;51.444;7.196;2023-03-23T02:59:42;10.90;99.90
1049;DHT22;513;51.444;7.196;2023-03-23T03:02:09;10.90;99.90
1049;DHT22;513;51.444;7.196;2023-03-23T03:04:38;10.90;99.90
1049;DHT22;513;51.444;7.196;2023-03-23T03:07:10;10.90;99.90
1049;DHT22;513;51.444;7.196;2023-03-23T03:09:42;10.90;99.90
1049;DHT22;513;51.444;7.196;2023-03-23T03:12:13;10.90;99.90
1049;DHT22;513;51.444;7.196;2023-03-23T03:14:41;10.90;99.90
1049;DHT22;513;51.444;7.196;2023-03-23T03:17:13;10.90;99.90
1049;DHT22;513;51.444;7.196;2023-03-23T03:19:43;10.90;99.90
1049;DHT22;513;51.444;7.196;2023-03-23T03:22:11;10.90;99.90
1049;DHT22;513;51.444;7.196;2023-03-23T03:24:38;10.90;99.90
1049;DHT22;513;51.444;7.196;2023-03-23T03:27:09;10.90;99.90
1049;DHT22;513;51.444;7.196;2023-03-23T03:29:37;11.00;99.90
1049;DHT22;513;51.444;7.196;2023-03-23T03:32:08;11.00;99.90
1049;DHT22;513;51.444;7.196;2023-03-23T03:34:36;11.00;99.90
1049;DHT22;513;51.444;7.196;2023-03-23T03:37:03;11.00;99.90
1049;DHT22;513;51.444;7.196;2023-03-23T03:39:34;11.00;99.90
1049;DHT22;513;51.444;7.196;2023-03-23T03:42:01;11.00;99.90
1049;DHT22;513;51.444;7.196;2023-03-23T03:44:28;11.00;99.90
1049;DHT22;513;51.444;7.196;2023-03-23T03:46:54;11.00;99.90
1049;DHT22;513;51.444;7.196;2023-03-23T03:49:21;11.00;99.90
1049;DHT22;513;51.444;7.196;2023-03-23T03:51:48;11.00;99.90
1049;DHT22;513;51.444;7.196;2023-03-23T03:54:14;11.00;99.90
1049;DHT22;513;51.444;7.196;2023-03-23T03:56:43;11.10;99.90
1049;DHT22;513;51.444;7.196;2023-03-23T03:59:10;11.10;99.90
1049;DHT22;513;51.444;7.196;2023-03-23T04:01:38;11.00;99.90
1049;DHT22;513;51.444;7.196;2023-03-23T04:04:04;11.10;99.90
1049;DHT22;513;51.444;7.196;2023-03-23T04:06:32;11.10;99.90
1049;DHT22;513;51.444;7.196;2023-03-23T04:09:03;11.20;99.90
1049;DHT22;513;51.444;7.196;2023-03-23T04:11:31;11.10;99.90
1049;DHT22;513;51.444;7.196;2023-03-23T04:13:59;11.20;99.90
1049;DHT22;513;51.444;7.196;2023-03-23T04:16:26;11.20;99.90
1049;DHT22;513;51.444;7.196;2023-03-23T04:18:54;11.20;99.90
1049;DHT22;513;51.444;7.196;2023-03-23T04:21:22;11.20;99.90
1049;DHT22;513;51.444;7.196;2023-03-23T04:23:49;11.20;99.90
1049;DHT22;513;51.444;7.196;2023-03-23T04:26:15;11.30;99.90
1049;DHT22;513;51.444;7.196;2023-03-23T04:28:42;11.30;99.90
1049;DHT22;513;51.444;7.196;2023-03-23T04:31:10;11.30;99.90
1049;DHT22;513;51.444;7.196;2023-03-23T04:33:38;11.20;99.90
1049;DHT22;513;51.444;7.196;2023-03-23T04:36:06;11.30;99.90
1049;DHT22;513;51.444;7.196;2023-03-23T04:38:32;11.30;99.90
1049;DHT22;513;51.444;7.196;2023-03-23T04:40:59;11.30;99.90
1049;DHT22;513;51.444;7.196;2023-03-23T04:43:27;11.30;99.90
1049;DHT22;513;51.444;7.196;2023-03-23T04:45:54;11.30;99.90
1049;DHT22;513;51.444;7.196;2023-03-23T04:48:23;11.30;99.90
1049;DHT22;513;51.444;7.196;2023-03-23T04:50:50;11.40;99.90
1049;DHT22;513;51.444;7.196;2023-03-23T04:53:17;11.30;99.90
1049;DHT22;513;51.444;7.196;2023-03-23T04:55:44;11.30;99.90
1049;DHT22;513;51.444;7.196;2023-03-23T04:58:10;11.30;99.90
1049;DHT22;513;51.444;7.196;2023-03-23T05:00:40;11.20;99.90
1049;DHT22;513;51.444;7.196;2023-03-23T05:03:08;11.30;99.90
1049;DHT22;513;51.444;7.196;2023-03-23T05:05:37;11.30;99.90
1049;DHT22;513;51.444;7.196;2023-03-23T05:08:05;11.30;99.90
1049;DHT22;513;51.444;7.196;2023-03-23T05:10:32;11.30;99.90
1049;DHT22;513;51.444;7.196;2023-03-23T05:12:58;11.30;99.90
1049;DHT22;513;51.444;7.196;2023-03-23T05:15:25;11.30;99.90
1049;DHT22;513;51.444;7.196;2023-03-23T05:17:51;11.40;99.90
1049;DHT22;513;51.444;7.196;2023-03-23T05:20:18;11.40;99.90
1049;DHT22;513;51.444;7.196;2023-03-23T05:22:46;11.40;99.90
1049;DHT22;513;51.444;7.196;2023-03-23T05:25:14;11.50;99.90
1049;DHT22;513;51.444;7.196;2023-03-23T05:27:44;11.40;99.90
1049;DHT22;513;51.444;7.196;2023-03-23T05:30:14;11.50;99.90
1049;DHT22;513;51.444;7.196;2023-03-23T05:32:42;11.50;99.90
1049;DHT22;513;51.444;7.196;2023-03-23T05:35:10;11.50;99.90
1049;DHT22;513;51.444;7.196;2023-03-23T05:37:38;11.50;99.90
1049;DHT22;513;51.444;7.196;2023-03-23T05:40:06;11.50;99.90
1049;DHT22;513;51.444;7.196;2023-03-23T05:42:33;11.40;99.90
1049;DHT22;513;51.444;7.196;2023-03-23T05:45:01;11.50;99.90
1049;DHT22;513;51.444;7.196;2023-03-23T05:47:27;11.50;99.90
1049;DHT22;513;51.444;7.196;2023-03-23T05:49:54;11.60;99.90
1049;DHT22;513;51.444;7.196;2023-03-23T05:52:20;11.50;99.90
1049;DHT22;513;51.444;7.196;2023-03-23T05:54:49;11.50;99.90
1049;DHT22;513;51.444;7.196;2023-03-23T05:57:17;11.50;99.90
1049;DHT22;513;51.444;7.196;2023-03-23T05:59:44;11.50;99.90
1049;DHT22;513;51.444;7.196;2023-03-23T06:02:10;11.50;99.90
1049;DHT22;513;51.444;7.196;2023-03-23T06:04:39;11.50;99.90
1049;DHT22;513;51.444;7.196;2023-03-23T06:07:06;11.60;99.90
1049;DHT22;513;51.444;7.196;2023-03-23T06:09:32;11.60;99.90
1049;DHT22;513;51.444;7.196;2023-03-23T06:11:59;11.60;99.90
1049;DHT22;513;51.444;7.196;2023-03-23T06:14:27;11.50;99.90
1049;DHT22;513;51.444;7.196;2023-03-23T06:16:53;11.50;99.90
1049;DHT22;513;51.444;7.196;2023-03-23T06:19:20;11.60;99.90
1049;DHT22;513;51.444;7.196;2023-03-23T06:21:48;11.60;99.90
1049;DHT22;513;51.444;7.196;2023-03-23T06:24:15;11.60;99.90
1049;DHT22;513;51.444;7.196;2023-03-23T06:26:41;11.60;99.90
1049;DHT22;513;51.444;7.196;2023-03-23T06:29:09;11.60;99.90
1049;DHT22;513;51.444;7.196;2023-03-23T06:31:38;11.70;99.90
1049;DHT22;513;51.444;7.196;2023-03-23T06:34:06;11.70;99.90
1049;DHT22;513;51.444;7.196;2023-03-23T06:36:34;11.70;99.90
1049;DHT22;513;51.444;7.196;2023-03-23T06:39:00;11.70;99.90
1049;DHT22;513;51.444;7.196;2023-03-23T06:41:29;11.60;99.90
1049;DHT22;513;51.444;7.196;2023-03-23T06:43:55;11.70;99.90
1049;DHT22;513;51.444;7.196;2023-03-23T06:46:22;11.70;99.90
1049;DHT22;513;51.444;7.196;2023-03-23T06:48:50;11.80;99.90
1049;DHT22;513;51.444;7.196;2023-03-23T06:51:17;11.80;99.90
1049;DHT22;513;51.444;7.196;2023-03-23T06:53:43;11.70;99.90
1049;DHT22;513;51.444;7.196;2023-03-23T06:56:10;11.80;99.90
1049;DHT22;513;51.444;7.196;2023-03-23T06:58:38;11.80;99.90
1049;DHT22;513;51.444;7.196;2023-03-23T07:01:05;11.80;99.90
1049;DHT22;513;51.444;7.196;2023-03-23T07:03:32;11.90;99.90
1049;DHT22;513;51.444;7.196;2023-03-23T07:06:00;11.90;99.90
1049;DHT22;513;51.444;7.196;2023-03-23T07:08:26;11.90;99.90
1049;DHT22;513;51.444;7.196;2023-03-23T07:10:53;11.90;99.90
1049;DHT22;513;51.444;7.196;2023-03-23T07:13:20;11.90;99.90
1049;DHT22;513;51.444;7.196;2023-03-23T07:15:47;12.00;99.90
1049;DHT22;513;51.444;7.196;2023-03-23T07:18:15;12.10;92.60
1049;DHT22;513;51.444;7.196;2023-03-23T07:20:42;12.00;91.70
1049;DHT22;513;51.444;7.196;2023-03-23T07:23:10;12.00;95.40
1049;DHT22;513;51.444;7.196;2023-03-23T07:25:37;12.00;87.10
1049;DHT22;513;51.444;7.196;2023-03-23T07:28:03;12.00;78.70
1049;DHT22;513;51.444;7.196;2023-03-23T07:30:30;12.00;80.90
1049;DHT22;513;51.444;7.196;2023-03-23T07:32:57;12.10;58.60
1049;DHT22;513;51.444;7.196;2023-03-23T07:35:23;12.10;50.70
1049;DHT22;513;51.444;7.196;2023-03-23T07:37:51;12.20;57.30
1049;DHT22;513;51.444;7.196;2023-03-23T07:40:19;12.30;34.60
1049;DHT22;513;51.444;7.196;2023-03-23T07:42:50;12.30;36.40
1049;DHT22;513;51.444;7.196;2023-03-23T07:45:17;12.30;36.90
1049;DHT22;513;51.444;7.196;2023-03-23T07:47:44;12.30;35.40
1049;DHT22;513;51.444;7.196;2023-03-23T07:50:10;12.30;35.80
1049;DHT22;513;51.444;7.196;2023-03-23T07:52:37;12.30;34.70
1049;DHT22;513;51.444;7.196;2023-03-23T07:55:05;12.30;40.60
1049;DHT22;513;51.444;7.196;2023-03-23T07:57:33;12.30;28.90
1049;DHT22;513;51.444;7.196;2023-03-23T08:00:00;12.30;21.30
1049;DHT22;513;51.444;7.196;2023-03-23T08:02:28;12.30;25.60
1049;DHT22;513;51.444;7.196;2023-03-23T08:04:57;12.30;21.20
1049;DHT22;513;51.444;7.196;2023-03-23T08:07:26;12.30;22.70
1049;DHT22;513;51.444;7.196;2023-03-23T08:09:52;12.40;13.10
1049;DHT22;513;51.444;7.196;2023-03-23T08:12:19;12.40;18.00
1049;DHT22;513;51.444;7.196;2023-03-23T08:14:47;12.50;11.30
1049;DHT22;513;51.444;7.196;2023-03-23T08:17:14;12.40;1.00
1049;DHT22;513;51.444;7.196;2023-03-23T08:19:40;12.40;7.80
1049;DHT22;513;51.444;7.196;2023-03-23T08:22:08;12.50;1.00
1049;DHT22;513;51.444;7.196;2023-03-23T08:24:34;12.40;1.00
1049;DHT22;513;51.444;7.196;2023-03-23T08:27:01;12.50;1.00
1049;DHT22;513;51.444;7.196;2023-03-23T08:29:27;12.50;1.00
1049;DHT22;513;51.444;7.196;2023-03-23T08:31:55;12.50;1.00
1049;DHT22;513;51.444;7.196;2023-03-23T08:34:23;12.60;1.00
1049;DHT22;513;51.444;7.196;2023-03-23T08:36:49;12.70;1.00
1049;DHT22;513;51.444;7.196;2023-03-23T08:39:16;12.70;1.00
1049;DHT22;513;51.444;7.196;2023-03-23T08:41:44;12.80;1.00
1049;DHT22;513;51.444;7.196;2023-03-23T08:44:10;12.80;1.00
1049;DHT22;513;51.444;7.196;2023-03-23T08:46:38;12.80;1.00
1049;DHT22;513;51.444;7.196;2023-03-23T08:49:06;12.90;1.00
1049;DHT22;513;51.444;7.196;2023-03-23T08:51:33;12.90;1.00
1049;DHT22;513;51.444;7.196;2023-03-23T08:54:01;12.90;1.00
1049;DHT22;513;51.444;7.196;2023-03-23T08:56:27;13.00;1.00
1049;DHT22;513;51.444;7.196;2023-03-23T08:58:54;13.00;1.00
1049;DHT22;513;51.444;7.196;2023-03-23T09:01:20;13.00;1.00
1049;DHT22;513;51.444;7.196;2023-03-23T09:03:47;13.10;1.00
1049;DHT22;513;51.444;7.196;2023-03-23T09:06:15;13.10;1.00
1049;DHT22;513;51.444;7.196;2023-03-23T09:08:41;13.30;1.00
1049;DHT22;513;51.444;7.196;2023-03-23T09:11:09;13.30;1.00
1049;DHT22;513;51.444;7.196;2023-03-23T09:13:36;13.10;1.00
1049;DHT22;513;51.444;7.196;2023-03-23T09:16:02;13.30;1.00
1049;DHT22;513;51.444;7.196;2023-03-23T09:18:29;13.30;1.00
1049;DHT22;513;51.444;7.196;2023-03-23T09:20:56;13.20;1.00
1049;DHT22;513;51.444;7.196;2023-03-23T09:23:24;13.30;1.00
1049;DHT22;513;51.444;7.196;2023-03-23T09:25:51;13.30;1.00
1049;DHT22;513;51.444;7.196;2023-03-23T09:28:18;13.10;1.00
1049;DHT22;513;51.444;7.196;2023-03-23T09:30:45;13.10;1.00
1049;DHT22;513;51.444;7.196;2023-03-23T09:33:12;13.30;1.00
1049;DHT22;513;51.444;7.196;2023-03-23T09:35:39;13.30;1.00
1049;DHT22;513;51.444;7.196;2023-03-23T09:38:07;13.10;1.00
1049;DHT22;513;51.444;7.196;2023-03-23T09:40:38;13.30;1.00
1049;DHT22;513;51.444;7.196;2023-03-23T09:43:25;13.20;99.90
1049;DHT22;513;51.444;7.196;2023-03-23T09:46:08;13.30;99.90
1049;DHT22;513;51.444;7.196;2023-03-23T09:48:40;13.10;99.90
1049;DHT22;513;51.444;7.196;2023-03-23T09:51:12;13.30;99.90
1049;DHT22;513;51.444;7.196;2023-03-23T09:53:41;13.30;99.90
1049;DHT22;513;51.444;7.196;2023-03-23T09:56:10;13.40;1.30
1049;DHT22;513;51.444;7.196;2023-03-23T09:58:39;13.20;1.00
1049;DHT22;513;51.444;7.196;2023-03-23T10:01:08;13.20;1.00
1049;DHT22;513;51.444;7.196;2023-03-23T10:03:37;13.20;99.90
1049;DHT22;513;51.444;7.196;2023-03-23T10:06:04;13.20;3.40
1049;DHT22;513;51.444;7.196;2023-03-23T10:08:31;13.30;99.90
1049;DHT22;513;51.444;7.196;2023-03-23T10:11:00;13.30;99.90
1049;DHT22;513;51.444;7.196;2023-03-23T10:13:35;13.30;63.40
1049;DHT22;513;51.444;7.196;2023-03-23T10:16:07;13.10;99.90
1049;DHT22;513;51.444;7.196;2023-03-23T10:18:36;12.90;1.00
1049;DHT22;513;51.444;7.196;2023-03-23T10:21:03;12.90;1.00
1049;DHT22;513;51.444;7.196;2023-03-23T10:23:40;12.90;1.00
1049;DHT22;513;51.444;7.196;2023-03-23T10:26:09;12.80;1.00
1049;DHT22;513;51.444;7.196;2023-03-23T10:28:43;12.20;48.00
1049;DHT22;513;51.444;7.196;2023-03-23T10:31:10;11.80;99.90
1049;DHT22;513;51.444;7.196;2023-03-23T10:33:38;11.60;99.90
1049;DHT22;513;51.444;7.196;2023-03-23T10:36:07;11.40;99.90
1049;DHT22;513;51.444;7.196;2023-03-23T10:38:36;11.30;99.90
1049;DHT22;513;51.444;7.196;2023-03-23T10:41:04;11.20;99.90
1049;DHT22;513;51.444;7.196;2023-03-23T10:43:33;11.30;99.90
1049;DHT22;513;51.444;7.196;2023-03-23T10:46:02;11.10;99.90
1049;DHT22;513;51.444;7.196;2023-03-23T10:48:33;11.20;99.90
1049;DHT22;513;51.444;7.196;2023-03-23T10:51:03;11.30;99.90
1049;DHT22;513;51.444;7.196;2023-03-23T10:53:31;11.40;99.90
1049;DHT22;513;51.444;7.196;2023-03-23T10:55:58;11.50;99.90
1049;DHT22;513;51.444;7.196;2023-03-23T10:58:26;11.50;99.90
1049;DHT22;513;51.444;7.196;2023-03-23T11:00:54;11.30;99.90
1049;DHT22;513;51.444;7.196;2023-03-23T11:03:27;11.30;99.90
1049;DHT22;513;51.444;7.196;2023-03-23T11:05:58;11.40;99.90
1049;DHT22;513;51.444;7.196;2023-03-23T11:08:26;11.50;99.90
1049;DHT22;513;51.444;7.196;2023-03-23T11:10:55;11.60;99.90
1049;DHT22;513;51.444;7.196;2023-03-23T11:13:22;11.50;99.90
1049;DHT22;513;51.444;7.196;2023-03-23T11:15:50;11.50;99.90
1049;DHT22;513;51.444;7.196;2023-03-23T11:18:18;11.20;99.90
1049;DHT22;513;51.444;7.196;2023-03-23T11:20:48;11.20;99.90
1049;DHT22;513;51.444;7.196;2023-03-23T11:23:18;11.20;99.90
1049;DHT22;513;51.444;7.196;2023-03-23T11:25:56;11.20;99.90
1049;DHT22;513;51.444;7.196;2023-03-23T11:28:25;11.20;99.90
1049;DHT22;513;51.444;7.196;2023-03-23T11:30:52;10.90;99.90
1049;DHT22;513;51.444;7.196;2023-03-23T11:33:19;11.00;99.90
1049;DHT22;513;51.444;7.196;2023-03-23T11:35:47;10.90;99.90
1049;DHT22;513;51.444;7.196;2023-03-23T11:38:16;10.90;99.90
1049;DHT22;513;51.444;7.196;2023-03-23T11:40:44;10.90;99.90
1049;DHT22;513;51.444;7.196;2023-03-23T11:43:13;11.00;99.90
1049;DHT22;513;51.444;7.196;2023-03-23T11:45:40;11.20;99.90
1049;DHT22;513;51.444;7.196;2023-03-23T11:48:13;11.00;99.90
1049;DHT22;513;51.444;7.196;2023-03-23T11:50:45;11.10;99.90
1049;DHT22;513;51.444;7.196;2023-03-23T11:53:15;11.00;99.90
1049;DHT22;513;51.444;7.196;2023-03-23T11:55:51;11.00;99.90
1049;DHT22;513;51.444;7.196;2023-03-23T11:58:20;10.80;99.90
1049;DHT22;513;51.444;7.196;2023-03-23T12:00:49;10.50;99.90
1049;DHT22;513;51.444;7.196;2023-03-23T12:03:31;10.40;99.90
1049;DHT22;513;51.444;7.196;2023-03-23T12:06:00;10.40;99.90
1049;DHT22;513;51.444;7.196;2023-03-23T12:08:38;10.30;99.90
1049;DHT22;513;51.444;7.196;2023-03-23T12:11:12;10.60;99.90
1049;DHT22;513;51.444;7.196;2023-03-23T12:13:42;10.80;99.90
1049;DHT22;513;51.444;7.196;2023-03-23T12:16:20;11.10;99.90
1049;DHT22;513;51.444;7.196;2023-03-23T12:18:52;11.10;99.90
1049;DHT22;513;51.444;7.196;2023-03-23T12:21:22;11.20;99.90
1049;DHT22;513;51.444;7.196;2023-03-23T12:23:56;11.20;99.90
1049;DHT22;513;51.444;7.196;2023-03-23T12:26:24;11.10;99.90
1049;DHT22;513;51.444;7.196;2023-03-23T12:29:01;10.90;99.90
1049;DHT22;513;51.444;7.196;2023-03-23T12:31:31;10.60;99.90
1049;DHT22;513;51.444;7.196;2023-03-23T12:34:03;10.70;99.90
1049;DHT22;513;51.444;7.196;2023-03-23T12:36:36;10.70;99.90
1049;DHT22;513;51.444;7.196;2023-03-23T12:39:12;10.80;99.90
1049;DHT22;513;51.444;7.196;2023-03-23T12:41:42;11.00;99.90
1049;DHT22;513;51.444;7.196;2023-03-23T12:44:11;10.80;99.90
1049;DHT22;513;51.444;7.196;2023-03-23T12:46:45;10.70;99.90
1049;DHT22;513;51.444;7.196;2023-03-23T12:49:14;10.80;99.90
1049;DHT22;513;51.444;7.196;2023-03-23T12:51:43;10.80;99.90
1049;DHT22;513;51.444;7.196;2023-03-23T12:54:15;10.80;99.90
1049;DHT22;513;51.444;7.196;2023-03-23T12:56:45;10.90;99.90
1049;DHT22;513;51.444;7.196;2023-03-23T12:59:16;10.80;99.90
1049;DHT22;513;51.444;7.196;2023-03-23T13:01:46;11.00;99.90
1049;DHT22;513;51.444;7.196;2023-03-23T13:04:14;11.10;99.90
1049;DHT22;513;51.444;7.196;2023-03-23T13:06:43;10.90;99.90
1049;DHT22;513;51.444;7.196;2023-03-23T13:09:12;11.00;99.90
1049;DHT22;513;51.444;7.196;2023-03-23T13:11:42;11.00;99.90
1049;DHT22;513;51.444;7.196;2023-03-23T13:14:13;11.00;99.90
1049;DHT22;513;51.444;7.196;2023-03-23T13:16:43;11.00;99.90
1049;DHT22;513;51.444;7.196;2023-03-23T13:19:14;11.10;99.90
1049;DHT22;513;51.444;7.196;2023-03-23T13:21:43;11.20;99.90
1049;DHT22;513;51.444;7.196;2023-03-23T13:24:10;11.30;99.90
1049;DHT22;513;51.444;7.196;2023-03-23T13:26:38;11.30;99.90
1049;DHT22;513;51.444;7.196;2023-03-23T13:29:08;11.40;99.90
1049;DHT22;513;51.444;7.196;2023-03-23T13:31:37;11.30;99.90
1049;DHT22;513;51.444;7.196;2023-03-23T13:34:05;11.50;99.90
1049;DHT22;513;51.444;7.196;2023-03-23T13:36:34;11.50;99.90
1049;DHT22;513;51.444;7.196;2023-03-23T13:39:02;11.70;99.90
1049;DHT22;513;51.444;7.196;2023-03-23T13:41:29;11.80;99.90
1049;DHT22;513;51.444;7.196;2023-03-23T13:44:16;11.80;99.90
1049;DHT22;513;51.444;7.196;2023-03-23T13:46:53;11.90;99.90
1049;DHT22;513;51.444;7.196;2023-03-23T13:49:20;12.00;99.90
1049;DHT22;513;51.444;7.196;2023-03-23T13:51:52;12.20;99.90
1049;DHT22;513;51.444;7.196;2023-03-23T13:54:23;12.30;99.90
1049;DHT22;513;51.444;7.196;2023-03-23T13:56:53;12.30;99.90
1049;DHT22;513;51.444;7.196;2023-03-23T13:59:30;12.00;99.90
1049;DHT22;513;51.444;7.196;2023-03-23T14:04:45;12.10;99.90
1049;DHT22;513;51.444;7.196;2023-03-23T14:07:16;12.30;99.90
1049;DHT22;513;51.444;7.196;2023-03-23T14:09:44;12.20;99.90
1049;DHT22;513;51.444;7.196;2023-03-23T14:12:14;12.20;99.90
1049;DHT22;513;51.444;7.196;2023-03-23T14:14:43;12.40;99.90
1049;DHT22;513;51.444;7.196;2023-03-23T14:17:11;12.50;99.90
1049;DHT22;513;51.444;7.196;2023-03-23T14:19:39;12.40;99.90
1049;DHT22;513;51.444;7.196;2023-03-23T14:22:16;12.50;99.90
1049;DHT22;513;51.444;7.196;2023-03-23T14:24:43;12.50;99.90
1049;DHT22;513;51.444;7.196;2023-03-23T14:27:11;12.50;99.90
1049;DHT22;513;51.444;7.196;2023-03-23T14:29:38;12.50;99.90
1049;DHT22;513;51.444;7.196;2023-03-23T14:32:06;12.40;99.90
1049;DHT22;513;51.444;7.196;2023-03-23T14:34:34;12.20;99.90
1049;DHT22;513;51.444;7.196;2023-03-23T14:37:01;12.20;99.90
1049;DHT22;513;51.444;7.196;2023-03-23T14:39:28;12.30;99.90
1049;DHT22;513;51.444;7.196;2023-03-23T14:42:00;12.10;99.90
1049;DHT22;513;51.444;7.196;2023-03-23T14:44:29;12.00;99.90
1049;DHT22;513;51.444;7.196;2023-03-23T14:46:57;12.10;99.90
1049;DHT22;513;51.444;7.196;2023-03-23T14:49:28;12.20;99.90
1049;DHT22;513;51.444;7.196;2023-03-23T14:51:55;12.10;99.90
1049;DHT22;513;51.444;7.196;2023-03-23T14:54:22;12.20;99.90
1049;DHT22;513;51.444;7.196;2023-03-23T14:56:49;12.30;99.90
1049;DHT22;513;51.444;7.196;2023-03-23T14:59:16;12.30;99.90
1049;DHT22;513;51.444;7.196;2023-03-23T15:01:42;12.20;99.90
1049;DHT22;513;51.444;7.196;2023-03-23T15:04:11;12.20;99.90
1049;DHT22;513;51.444;7.196;2023-03-23T15:06:40;12.20;99.90
1049;DHT22;513;51.444;7.196;2023-03-23T15:09:11;12.20;99.90
1049;DHT22;513;51.444;7.196;2023-03-23T15:11:38;14.10;99.90
1049;DHT22;513;51.444;7.196;2023-03-23T15:14:08;12.20;99.90
1049;DHT22;513;51.444;7.196;2023-03-23T15:16:36;12.20;99.90
1049;DHT22;513;51.444;7.196;2023-03-23T15:19:10;12.40;99.90
1049;DHT22;513;51.444;7.196;2023-03-23T15:21:47;12.50;99.90
1049;DHT22;513;51.444;7.196;2023-03-23T15:24:19;12.60;99.90
1049;DHT22;513;51.444;7.196;2023-03-23T15:26:46;12.80;99.90
1049;DHT22;513;51.444;7.196;2023-03-23T15:29:14;12.90;99.90
1049;DHT22;513;51.444;7.196;2023-03-23T15:31:42;12.90;99.90
1049;DHT22;513;51.444;7.196;2023-03-23T15:34:11;12.80;99.90
1049;DHT22;513;51.444;7.196;2023-03-23T15:36:39;13.00;99.90
1049;DHT22;513;51.444;7.196;2023-03-23T15:39:08;13.00;99.90
1049;DHT22;513;51.444;7.196;2023-03-23T15:41:44;12.90;99.90
1049;DHT22;513;51.444;7.196;2023-03-23T15:44:12;12.90;99.90
1049;DHT22;513;51.444;7.196;2023-03-23T15:46:48;12.90;99.90
1049;DHT22;513;51.444;7.196;2023-03-23T15:49:16;12.80;99.90
1049;DHT22;513;51.444;7.196;2023-03-23T15:51:43;12.90;99.90
1049;DHT22;513;51.444;7.196;2023-03-23T15:54:12;12.90;99.90
1049;DHT22;513;51.444;7.196;2023-03-23T15:56:38;12.80;99.90
1049;DHT22;513;51.444;7.196;2023-03-23T15:59:05;12.90;99.90
1049;DHT22;513;51.444;7.196;2023-03-23T16:01:32;13.00;99.90
1049;DHT22;513;51.444;7.196;2023-03-23T16:03:59;13.00;99.90
1049;DHT22;513;51.444;7.196;2023-03-23T16:06:27;13.00;99.90
1049;DHT22;513;51.444;7.196;2023-03-23T16:08:55;13.00;99.90
1049;DHT22;513;51.444;7.196;2023-03-23T16:11:24;13.00;99.90
1049;DHT22;513;51.444;7.196;2023-03-23T16:13:51;13.00;99.90
1049;DHT22;513;51.444;7.196;2023-03-23T16:16:18;13.00;99.90
1049;DHT22;513;51.444;7.196;2023-03-23T16:18:46;13.00;99.90
1049;DHT22;513;51.444;7.196;2023-03-23T16:21:13;13.00;99.90
1049;DHT22;513;51.444;7.196;2023-03-23T16:23:39;12.80;99.90
1049;DHT22;513;51.444;7.196;2023-03-23T16:26:08;12.70;99.90
1049;DHT22;513;51.444;7.196;2023-03-23T16:28:37;12.70;99.90
1049;DHT22;513;51.444;7.196;2023-03-23T16:31:03;12.80;99.90
1049;DHT22;513;51.444;7.196;2023-03-23T16:33:30;12.70;99.90